sensor_id;sensor_type;location;lat;lon;timestamp;P1;durP1;ratioP1;P2;durP2;ratioP2
24373;SDS011;12498;50.880;12.096;2023-05-10T00:00:11;8.90;;;4.30;;
24373;SDS011;12498;50.880;12.096;2023-05-10T00:02:37;9.30;;;4.25;;
24373;SDS011;12498;50.880;12.096;2023-05-10T00:05:04;7.25;;;4.15;;
24373;SDS011;12498;50.880;12.096;2023-05-10T00:07:30;8.85;;;4.40;;
24373;SDS011;12498;50.880;12.096;2023-05-10T00:09:55;6.97;;;4.38;;
24373;SDS011;12498;50.880;12.096;2023-05-10T00:12:21;7.28;;;4.50;;
24373;SDS011;12498;50.880;12.096;2023-05-10T00:14:47;9.70;;;4.45;;
24373;SDS011;12498;50.880;12.096;2023-05-10T00:17:12;8.85;;;4.40;;
24373;SDS011;12498;50.880;12.096;2023-05-10T00:19:38;4.78;;;4.05;;
24373;SDS011;12498;50.880;12.096;2023-05-10T00:22:04;9.50;;;4.15;;
24373;SDS011;12498;50.880;12.096;2023-05-10T00:24:30;11.20;;;4.20;;
24373;SDS011;12498;50.880;12.096;2023-05-10T00:26:55;9.30;;;4.10;;
24373;SDS011;12498;50.880;12.096;2023-05-10T00:29:21;6.45;;;4.45;;
24373;SDS011;12498;50.880;12.096;2023-05-10T00:31:47;11.90;;;4.53;;
24373;SDS011;12498;50.880;12.096;2023-05-10T00:34:13;7.38;;;3.97;;
24373;SDS011;12498;50.880;12.096;2023-05-10T00:36:38;6.82;;;4.40;;
24373;SDS011;12498;50.880;12.096;2023-05-10T00:39:04;10.00;;;5.30;;
24373;SDS011;12498;50.880;12.096;2023-05-10T00:41:30;9.80;;;4.50;;
24373;SDS011;12498;50.880;12.096;2023-05-10T00:43:58;10.63;;;4.40;;
24373;SDS011;12498;50.880;12.096;2023-05-10T00:46:24;6.72;;;4.30;;
24373;SDS011;12498;50.880;12.096;2023-05-10T00:48:50;8.02;;;4.30;;
24373;SDS011;12498;50.880;12.096;2023-05-10T00:51:16;9.70;;;4.70;;
24373;SDS011;12498;50.880;12.096;2023-05-10T00:53:42;7.05;;;4.45;;
24373;SDS011;12498;50.880;12.096;2023-05-10T00:56:10;7.75;;;4.38;;
24373;SDS011;12498;50.880;12.096;2023-05-10T00:58:36;7.10;;;4.78;;
24373;SDS011;12498;50.880;12.096;2023-05-10T01:01:01;15.98;;;5.00;;
24373;SDS011;12498;50.880;12.096;2023-05-10T01:03:27;6.43;;;4.57;;
24373;SDS011;12498;50.880;12.096;2023-05-10T01:05:53;10.80;;;5.68;;
24373;SDS011;12498;50.880;12.096;2023-05-10T01:08:20;11.45;;;5.68;;
24373;SDS011;12498;50.880;12.096;2023-05-10T01:10:46;9.40;;;5.70;;
24373;SDS011;12498;50.880;12.096;2023-05-10T01:13:14;11.32;;;5.65;;
24373;SDS011;12498;50.880;12.096;2023-05-10T01:15:43;25.35;;;8.70;;
24373;SDS011;12498;50.880;12.096;2023-05-10T01:18:11;12.85;;;6.72;;
24373;SDS011;12498;50.880;12.096;2023-05-10T01:20:39;31.15;;;10.48;;
24373;SDS011;12498;50.880;12.096;2023-05-10T01:23:14;20.10;;;7.45;;
24373;SDS011;12498;50.880;12.096;2023-05-10T01:28:44;8.73;;;4.45;;
24373;SDS011;12498;50.880;12.096;2023-05-10T01:34:40;6.60;;;4.40;;
24373;SDS011;12498;50.880;12.096;2023-05-10T01:37:13;8.23;;;4.00;;
24373;SDS011;12498;50.880;12.096;2023-05-10T01:39:50;6.07;;;3.63;;
24373;SDS011;12498;50.880;12.096;2023-05-10T01:42:26;8.25;;;4.07;;
24373;SDS011;12498;50.880;12.096;2023-05-10T01:45:00;8.57;;;4.22;;
24373;SDS011;12498;50.880;12.096;2023-05-10T01:50:03;7.40;;;4.30;;
24373;SDS011;12498;50.880;12.096;2023-05-10T01:55:00;6.25;;;4.10;;
24373;SDS011;12498;50.880;12.096;2023-05-10T01:57:32;8.88;;;4.90;;
24373;SDS011;12498;50.880;12.096;2023-05-10T02:00:01;11.35;;;5.70;;
24373;SDS011;12498;50.880;12.096;2023-05-10T02:02:28;11.90;;;5.53;;
24373;SDS011;12498;50.880;12.096;2023-05-10T02:04:58;14.45;;;5.93;;
24373;SDS011;12498;50.880;12.096;2023-05-10T02:07:24;10.48;;;5.35;;
24373;SDS011;12498;50.880;12.096;2023-05-10T02:09:53;7.80;;;4.10;;
24373;SDS011;12498;50.880;12.096;2023-05-10T02:12:20;6.70;;;4.35;;
24373;SDS011;12498;50.880;12.096;2023-05-10T02:14:48;6.70;;;4.28;;
24373;SDS011;12498;50.880;12.096;2023-05-10T02:17:17;9.48;;;4.30;;
24373;SDS011;12498;50.880;12.096;2023-05-10T02:19:44;16.83;;;6.07;;
24373;SDS011;12498;50.880;12.096;2023-05-10T02:22:11;11.57;;;5.13;;
24373;SDS011;12498;50.880;12.096;2023-05-10T02:24:38;13.23;;;4.93;;
24373;SDS011;12498;50.880;12.096;2023-05-10T02:27:05;10.05;;;5.35;;
24373;SDS011;12498;50.880;12.096;2023-05-10T02:29:32;10.13;;;5.22;;
24373;SDS011;12498;50.880;12.096;2023-05-10T02:31:59;9.02;;;4.90;;
24373;SDS011;12498;50.880;12.096;2023-05-10T02:34:26;10.88;;;4.80;;
24373;SDS011;12498;50.880;12.096;2023-05-10T02:36:53;14.10;;;6.13;;
24373;SDS011;12498;50.880;12.096;2023-05-10T02:39:20;9.52;;;4.97;;
24373;SDS011;12498;50.880;12.096;2023-05-10T02:41:47;11.15;;;4.32;;
24373;SDS011;12498;50.880;12.096;2023-05-10T02:44:14;6.50;;;4.43;;
24373;SDS011;12498;50.880;12.096;2023-05-10T02:46:43;15.35;;;5.43;;
24373;SDS011;12498;50.880;12.096;2023-05-10T02:49:09;10.52;;;4.35;;
24373;SDS011;12498;50.880;12.096;2023-05-10T02:51:37;10.13;;;4.97;;
24373;SDS011;12498;50.880;12.096;2023-05-10T02:54:11;10.65;;;4.90;;
24373;SDS011;12498;50.880;12.096;2023-05-10T02:56:50;9.40;;;4.88;;
24373;SDS011;12498;50.880;12.096;2023-05-10T02:59:18;12.60;;;5.22;;
24373;SDS011;12498;50.880;12.096;2023-05-10T03:01:44;9.23;;;4.55;;
24373;SDS011;12498;50.880;12.096;2023-05-10T03:04:10;9.38;;;4.25;;
24373;SDS011;12498;50.880;12.096;2023-05-10T03:06:36;11.90;;;4.30;;
24373;SDS011;12498;50.880;12.096;2023-05-10T03:09:02;10.73;;;4.18;;
24373;SDS011;12498;50.880;12.096;2023-05-10T03:16:52;12.73;;;4.90;;
24373;SDS011;12498;50.880;12.096;2023-05-10T03:19:38;7.40;;;4.43;;
24373;SDS011;12498;50.880;12.096;2023-05-10T03:22:10;8.05;;;4.32;;
24373;SDS011;12498;50.880;12.096;2023-05-10T03:24:39;7.78;;;4.53;;
24373;SDS011;12498;50.880;12.096;2023-05-10T03:27:07;7.28;;;3.80;;
24373;SDS011;12498;50.880;12.096;2023-05-10T03:29:33;7.88;;;4.53;;
24373;SDS011;12498;50.880;12.096;2023-05-10T03:31:59;7.20;;;4.05;;
24373;SDS011;12498;50.880;12.096;2023-05-10T03:34:25;7.53;;;4.43;;
24373;SDS011;12498;50.880;12.096;2023-05-10T03:36:51;5.95;;;4.22;;
24373;SDS011;12498;50.880;12.096;2023-05-10T03:39:17;9.95;;;4.40;;
24373;SDS011;12498;50.880;12.096;2023-05-10T03:41:43;7.53;;;4.20;;
24373;SDS011;12498;50.880;12.096;2023-05-10T03:44:09;6.63;;;4.22;;
24373;SDS011;12498;50.880;12.096;2023-05-10T03:46:34;8.15;;;4.25;;
24373;SDS011;12498;50.880;12.096;2023-05-10T03:49:00;7.15;;;4.00;;
24373;SDS011;12498;50.880;12.096;2023-05-10T03:51:25;9.85;;;4.43;;
24373;SDS011;12498;50.880;12.096;2023-05-10T03:53:53;10.63;;;3.83;;
24373;SDS011;12498;50.880;12.096;2023-05-10T03:56:19;8.32;;;4.30;;
24373;SDS011;12498;50.880;12.096;2023-05-10T03:58:45;10.40;;;4.32;;
24373;SDS011;12498;50.880;12.096;2023-05-10T04:01:11;9.02;;;4.03;;
24373;SDS011;12498;50.880;12.096;2023-05-10T04:03:37;10.80;;;4.63;;
24373;SDS011;12498;50.880;12.096;2023-05-10T04:06:03;7.15;;;4.25;;
24373;SDS011;12498;50.880;12.096;2023-05-10T04:08:29;5.97;;;3.60;;
24373;SDS011;12498;50.880;12.096;2023-05-10T04:11:04;7.72;;;4.35;;
24373;SDS011;12498;50.880;12.096;2023-05-10T04:13:31;7.03;;;3.90;;
24373;SDS011;12498;50.880;12.096;2023-05-10T04:15:57;14.70;;;9.45;;
24373;SDS011;12498;50.880;12.096;2023-05-10T04:18:22;11.20;;;7.18;;
24373;SDS011;12498;50.880;12.096;2023-05-10T04:20:48;13.85;;;7.35;;
24373;SDS011;12498;50.880;12.096;2023-05-10T04:23:14;15.88;;;5.65;;
24373;SDS011;12498;50.880;12.096;2023-05-10T04:25:41;35.42;;;6.68;;
24373;SDS011;12498;50.880;12.096;2023-05-10T04:28:07;13.82;;;5.43;;
24373;SDS011;12498;50.880;12.096;2023-05-10T04:30:33;15.63;;;6.03;;
24373;SDS011;12498;50.880;12.096;2023-05-10T04:32:58;18.77;;;5.10;;
24373;SDS011;12498;50.880;12.096;2023-05-10T04:35:24;14.60;;;6.97;;
24373;SDS011;12498;50.880;12.096;2023-05-10T04:37:50;12.23;;;6.80;;
24373;SDS011;12498;50.880;12.096;2023-05-10T04:40:15;16.85;;;6.43;;
24373;SDS011;12498;50.880;12.096;2023-05-10T04:42:41;13.57;;;5.57;;
24373;SDS011;12498;50.880;12.096;2023-05-10T04:45:06;15.50;;;5.90;;
24373;SDS011;12498;50.880;12.096;2023-05-10T04:47:34;10.70;;;5.05;;
24373;SDS011;12498;50.880;12.096;2023-05-10T04:50:03;9.57;;;4.30;;
24373;SDS011;12498;50.880;12.096;2023-05-10T04:52:30;11.65;;;4.95;;
24373;SDS011;12498;50.880;12.096;2023-05-10T04:54:55;17.90;;;5.30;;
24373;SDS011;12498;50.880;12.096;2023-05-10T04:57:21;9.68;;;4.47;;
24373;SDS011;12498;50.880;12.096;2023-05-10T04:59:47;9.75;;;4.57;;
24373;SDS011;12498;50.880;12.096;2023-05-10T05:02:13;7.90;;;4.45;;
24373;SDS011;12498;50.880;12.096;2023-05-10T05:04:38;6.78;;;4.30;;
24373;SDS011;12498;50.880;12.096;2023-05-10T05:07:04;7.65;;;4.03;;
24373;SDS011;12498;50.880;12.096;2023-05-10T05:09:30;6.90;;;4.13;;
24373;SDS011;12498;50.880;12.096;2023-05-10T05:11:57;9.10;;;4.32;;
24373;SDS011;12498;50.880;12.096;2023-05-10T05:14:23;9.30;;;4.10;;
24373;SDS011;12498;50.880;12.096;2023-05-10T05:16:50;11.77;;;4.10;;
24373;SDS011;12498;50.880;12.096;2023-05-10T05:19:18;10.02;;;4.20;;
24373;SDS011;12498;50.880;12.096;2023-05-10T05:21:44;11.23;;;4.55;;
24373;SDS011;12498;50.880;12.096;2023-05-10T05:24:10;11.15;;;4.53;;
24373;SDS011;12498;50.880;12.096;2023-05-10T05:26:37;11.98;;;4.18;;
24373;SDS011;12498;50.880;12.096;2023-05-10T05:29:03;11.43;;;4.30;;
24373;SDS011;12498;50.880;12.096;2023-05-10T05:31:29;11.77;;;4.90;;
24373;SDS011;12498;50.880;12.096;2023-05-10T05:33:54;7.35;;;4.20;;
24373;SDS011;12498;50.880;12.096;2023-05-10T05:36:20;12.10;;;4.70;;
24373;SDS011;12498;50.880;12.096;2023-05-10T05:38:46;7.75;;;4.57;;
24373;SDS011;12498;50.880;12.096;2023-05-10T05:41:12;10.60;;;4.00;;
24373;SDS011;12498;50.880;12.096;2023-05-10T05:43:37;8.02;;;4.32;;
24373;SDS011;12498;50.880;12.096;2023-05-10T05:46:03;8.77;;;3.90;;
24373;SDS011;12498;50.880;12.096;2023-05-10T05:48:29;9.15;;;4.22;;
24373;SDS011;12498;50.880;12.096;2023-05-10T05:50:55;10.20;;;4.25;;
24373;SDS011;12498;50.880;12.096;2023-05-10T05:53:21;5.32;;;3.75;;
24373;SDS011;12498;50.880;12.096;2023-05-10T05:55:51;7.95;;;4.25;;
24373;SDS011;12498;50.880;12.096;2023-05-10T05:58:19;9.13;;;4.25;;
24373;SDS011;12498;50.880;12.096;2023-05-10T06:00:44;8.55;;;3.90;;
24373;SDS011;12498;50.880;12.096;2023-05-10T06:03:10;6.82;;;4.38;;
24373;SDS011;12498;50.880;12.096;2023-05-10T06:05:36;11.60;;;4.50;;
24373;SDS011;12498;50.880;12.096;2023-05-10T06:08:01;11.13;;;4.78;;
24373;SDS011;12498;50.880;12.096;2023-05-10T06:10:27;13.02;;;5.13;;
24373;SDS011;12498;50.880;12.096;2023-05-10T06:12:52;14.00;;;4.18;;
24373;SDS011;12498;50.880;12.096;2023-05-10T06:15:18;7.93;;;4.00;;
24373;SDS011;12498;50.880;12.096;2023-05-10T06:17:44;9.90;;;4.07;;
24373;SDS011;12498;50.880;12.096;2023-05-10T06:20:09;10.38;;;4.15;;
24373;SDS011;12498;50.880;12.096;2023-05-10T06:22:35;10.70;;;4.95;;
24373;SDS011;12498;50.880;12.096;2023-05-10T06:25:01;6.97;;;4.90;;
24373;SDS011;12498;50.880;12.096;2023-05-10T06:27:27;10.48;;;4.60;;
24373;SDS011;12498;50.880;12.096;2023-05-10T06:29:53;8.27;;;5.07;;
24373;SDS011;12498;50.880;12.096;2023-05-10T06:32:18;9.85;;;4.82;;
24373;SDS011;12498;50.880;12.096;2023-05-10T06:34:44;10.98;;;5.35;;
24373;SDS011;12498;50.880;12.096;2023-05-10T06:37:09;8.15;;;4.75;;
24373;SDS011;12498;50.880;12.096;2023-05-10T06:39:35;11.32;;;5.80;;
24373;SDS011;12498;50.880;12.096;2023-05-10T06:42:01;16.52;;;7.03;;
24373;SDS011;12498;50.880;12.096;2023-05-10T06:44:27;15.20;;;5.93;;
24373;SDS011;12498;50.880;12.096;2023-05-10T06:46:53;8.23;;;5.05;;
24373;SDS011;12498;50.880;12.096;2023-05-10T06:49:20;9.65;;;4.93;;
24373;SDS011;12498;50.880;12.096;2023-05-10T06:51:45;14.00;;;5.55;;
24373;SDS011;12498;50.880;12.096;2023-05-10T06:54:11;11.30;;;5.35;;
24373;SDS011;12498;50.880;12.096;2023-05-10T06:56:36;14.82;;;5.55;;
24373;SDS011;12498;50.880;12.096;2023-05-10T06:59:02;10.40;;;5.38;;
24373;SDS011;12498;50.880;12.096;2023-05-10T07:01:28;8.80;;;5.20;;
24373;SDS011;12498;50.880;12.096;2023-05-10T07:03:53;10.75;;;5.90;;
24373;SDS011;12498;50.880;12.096;2023-05-10T07:06:19;10.48;;;5.03;;
24373;SDS011;12498;50.880;12.096;2023-05-10T07:08:45;10.40;;;5.07;;
24373;SDS011;12498;50.880;12.096;2023-05-10T07:11:10;12.15;;;5.07;;
24373;SDS011;12498;50.880;12.096;2023-05-10T07:13:36;8.13;;;5.00;;
24373;SDS011;12498;50.880;12.096;2023-05-10T07:16:04;8.43;;;4.75;;
24373;SDS011;12498;50.880;12.096;2023-05-10T07:18:31;7.63;;;4.30;;
24373;SDS011;12498;50.880;12.096;2023-05-10T07:20:57;7.30;;;4.70;;
24373;SDS011;12498;50.880;12.096;2023-05-10T07:23:22;7.60;;;5.38;;
24373;SDS011;12498;50.880;12.096;2023-05-10T07:25:49;7.82;;;5.03;;
24373;SDS011;12498;50.880;12.096;2023-05-10T07:28:17;14.40;;;5.50;;
24373;SDS011;12498;50.880;12.096;2023-05-10T07:30:43;9.43;;;5.50;;
24373;SDS011;12498;50.880;12.096;2023-05-10T07:33:09;11.57;;;5.65;;
24373;SDS011;12498;50.880;12.096;2023-05-10T07:35:38;9.20;;;5.40;;
24373;SDS011;12498;50.880;12.096;2023-05-10T07:38:04;9.27;;;5.30;;
24373;SDS011;12498;50.880;12.096;2023-05-10T07:40:30;8.25;;;5.47;;
24373;SDS011;12498;50.880;12.096;2023-05-10T07:42:56;9.52;;;5.45;;
24373;SDS011;12498;50.880;12.096;2023-05-10T07:45:23;11.63;;;5.75;;
24373;SDS011;12498;50.880;12.096;2023-05-10T07:47:49;9.63;;;6.45;;
24373;SDS011;12498;50.880;12.096;2023-05-10T07:50:14;8.70;;;6.25;;
24373;SDS011;12498;50.880;12.096;2023-05-10T07:52:40;7.90;;;5.78;;
24373;SDS011;12498;50.880;12.096;2023-05-10T07:55:06;9.93;;;5.95;;
24373;SDS011;12498;50.880;12.096;2023-05-10T07:57:33;11.65;;;6.47;;
24373;SDS011;12498;50.880;12.096;2023-05-10T07:59:59;8.32;;;5.70;;
24373;SDS011;12498;50.880;12.096;2023-05-10T08:02:25;9.90;;;5.93;;
24373;SDS011;12498;50.880;12.096;2023-05-10T08:04:51;10.07;;;6.25;;
24373;SDS011;12498;50.880;12.096;2023-05-10T08:07:17;7.05;;;5.78;;
24373;SDS011;12498;50.880;12.096;2023-05-10T08:09:43;10.63;;;6.07;;
24373;SDS011;12498;50.880;12.096;2023-05-10T08:12:08;9.82;;;6.60;;
24373;SDS011;12498;50.880;12.096;2023-05-10T08:14:34;14.23;;;7.80;;
24373;SDS011;12498;50.880;12.096;2023-05-10T08:17:01;10.77;;;6.25;;
24373;SDS011;12498;50.880;12.096;2023-05-10T08:19:28;9.63;;;6.25;;
24373;SDS011;12498;50.880;12.096;2023-05-10T08:21:53;10.20;;;6.07;;
24373;SDS011;12498;50.880;12.096;2023-05-10T08:24:20;14.15;;;6.50;;
24373;SDS011;12498;50.880;12.096;2023-05-10T08:26:46;10.50;;;6.43;;
24373;SDS011;12498;50.880;12.096;2023-05-10T08:29:12;12.15;;;6.72;;
24373;SDS011;12498;50.880;12.096;2023-05-10T08:31:38;11.38;;;6.97;;
24373;SDS011;12498;50.880;12.096;2023-05-10T08:34:04;16.90;;;7.80;;
24373;SDS011;12498;50.880;12.096;2023-05-10T08:36:30;12.52;;;6.72;;
24373;SDS011;12498;50.880;12.096;2023-05-10T08:38:57;11.50;;;6.35;;
24373;SDS011;12498;50.880;12.096;2023-05-10T08:41:23;10.93;;;6.70;;
24373;SDS011;12498;50.880;12.096;2023-05-10T08:43:51;11.10;;;7.72;;
24373;SDS011;12498;50.880;12.096;2023-05-10T08:46:18;11.13;;;7.10;;
24373;SDS011;12498;50.880;12.096;2023-05-10T08:48:45;12.30;;;6.68;;
24373;SDS011;12498;50.880;12.096;2023-05-10T08:51:15;10.75;;;6.93;;
24373;SDS011;12498;50.880;12.096;2023-05-10T08:53:44;10.02;;;6.72;;
24373;SDS011;12498;50.880;12.096;2023-05-10T08:56:10;8.85;;;6.70;;
24373;SDS011;12498;50.880;12.096;2023-05-10T08:58:37;11.10;;;6.88;;
24373;SDS011;12498;50.880;12.096;2023-05-10T09:01:03;12.30;;;6.85;;
24373;SDS011;12498;50.880;12.096;2023-05-10T09:03:30;13.07;;;6.93;;
24373;SDS011;12498;50.880;12.096;2023-05-10T09:05:56;9.07;;;6.60;;
24373;SDS011;12498;50.880;12.096;2023-05-10T09:08:23;10.70;;;6.72;;
24373;SDS011;12498;50.880;12.096;2023-05-10T09:13:18;10.77;;;7.97;;
24373;SDS011;12498;50.880;12.096;2023-05-10T09:15:47;13.10;;;7.32;;
24373;SDS011;12498;50.880;12.096;2023-05-10T09:18:13;10.60;;;6.95;;
24373;SDS011;12498;50.880;12.096;2023-05-10T09:20:40;12.82;;;7.55;;
24373;SDS011;12498;50.880;12.096;2023-05-10T09:23:06;8.77;;;6.75;;
24373;SDS011;12498;50.880;12.096;2023-05-10T09:25:32;12.30;;;6.88;;
24373;SDS011;12498;50.880;12.096;2023-05-10T09:27:58;10.10;;;6.82;;
24373;SDS011;12498;50.880;12.096;2023-05-10T09:32:52;9.80;;;6.82;;
24373;SDS011;12498;50.880;12.096;2023-05-10T09:35:19;7.65;;;6.07;;
24373;SDS011;12498;50.880;12.096;2023-05-10T09:37:47;8.02;;;6.30;;
24373;SDS011;12498;50.880;12.096;2023-05-10T09:40:15;11.25;;;7.25;;
24373;SDS011;12498;50.880;12.096;2023-05-10T09:42:42;10.43;;;6.97;;
24373;SDS011;12498;50.880;12.096;2023-05-10T09:45:15;11.68;;;6.85;;
24373;SDS011;12498;50.880;12.096;2023-05-10T09:47:41;15.27;;;7.10;;
24373;SDS011;12498;50.880;12.096;2023-05-10T09:50:07;11.52;;;7.75;;
24373;SDS011;12498;50.880;12.096;2023-05-10T09:52:45;12.10;;;7.43;;
24373;SDS011;12498;50.880;12.096;2023-05-10T09:55:12;10.70;;;7.60;;
24373;SDS011;12498;50.880;12.096;2023-05-10T09:57:39;10.10;;;7.40;;
24373;SDS011;12498;50.880;12.096;2023-05-10T10:00:06;10.20;;;7.90;;
24373;SDS011;12498;50.880;12.096;2023-05-10T10:02:32;10.95;;;7.60;;
24373;SDS011;12498;50.880;12.096;2023-05-10T10:05:00;12.57;;;8.00;;
24373;SDS011;12498;50.880;12.096;2023-05-10T10:07:27;11.18;;;7.93;;
24373;SDS011;12498;50.880;12.096;2023-05-10T10:09:54;9.68;;;7.68;;
24373;SDS011;12498;50.880;12.096;2023-05-10T10:12:20;13.05;;;7.72;;
24373;SDS011;12498;50.880;12.096;2023-05-10T10:14:46;10.20;;;7.43;;
24373;SDS011;12498;50.880;12.096;2023-05-10T10:17:13;11.57;;;8.50;;
24373;SDS011;12498;50.880;12.096;2023-05-10T10:19:39;12.13;;;7.13;;
24373;SDS011;12498;50.880;12.096;2023-05-10T10:22:05;10.02;;;7.60;;
24373;SDS011;12498;50.880;12.096;2023-05-10T10:24:32;10.65;;;7.38;;
24373;SDS011;12498;50.880;12.096;2023-05-10T10:27:07;11.80;;;7.93;;
24373;SDS011;12498;50.880;12.096;2023-05-10T10:30:09;9.02;;;7.03;;
24373;SDS011;12498;50.880;12.096;2023-05-10T10:35:39;10.05;;;7.63;;
24373;SDS011;12498;50.880;12.096;2023-05-10T10:38:07;10.32;;;7.28;;
24373;SDS011;12498;50.880;12.096;2023-05-10T10:40:33;10.07;;;7.35;;
24373;SDS011;12498;50.880;12.096;2023-05-10T10:48:47;11.07;;;7.50;;
24373;SDS011;12498;50.880;12.096;2023-05-10T10:51:16;10.85;;;7.47;;
24373;SDS011;12498;50.880;12.096;2023-05-10T10:53:42;9.55;;;7.32;;
24373;SDS011;12498;50.880;12.096;2023-05-10T10:56:09;15.15;;;7.47;;
24373;SDS011;12498;50.880;12.096;2023-05-10T10:58:37;10.63;;;8.65;;
24373;SDS011;12498;50.880;12.096;2023-05-10T11:06:40;8.73;;;7.07;;
24373;SDS011;12498;50.880;12.096;2023-05-10T11:09:07;8.38;;;6.40;;
24373;SDS011;12498;50.880;12.096;2023-05-10T11:11:34;9.18;;;7.20;;
24373;SDS011;12498;50.880;12.096;2023-05-10T11:14:04;9.43;;;6.78;;
24373;SDS011;12498;50.880;12.096;2023-05-10T11:16:41;9.95;;;6.65;;
24373;SDS011;12498;50.880;12.096;2023-05-10T11:19:12;8.85;;;6.47;;
24373;SDS011;12498;50.880;12.096;2023-05-10T11:24:39;8.05;;;6.13;;
24373;SDS011;12498;50.880;12.096;2023-05-10T11:27:20;7.80;;;6.28;;
24373;SDS011;12498;50.880;12.096;2023-05-10T11:29:46;8.27;;;6.45;;
24373;SDS011;12498;50.880;12.096;2023-05-10T11:32:16;8.32;;;6.38;;
24373;SDS011;12498;50.880;12.096;2023-05-10T11:34:46;8.85;;;6.50;;
24373;SDS011;12498;50.880;12.096;2023-05-10T11:37:13;10.93;;;6.72;;
24373;SDS011;12498;50.880;12.096;2023-05-10T11:39:38;11.32;;;6.60;;
24373;SDS011;12498;50.880;12.096;2023-05-10T11:42:12;8.13;;;6.10;;
24373;SDS011;12498;50.880;12.096;2023-05-10T11:44:37;7.90;;;6.22;;
24373;SDS011;12498;50.880;12.096;2023-05-10T11:47:03;7.03;;;6.13;;
24373;SDS011;12498;50.880;12.096;2023-05-10T11:49:29;7.60;;;6.07;;
24373;SDS011;12498;50.880;12.096;2023-05-10T11:52:07;8.73;;;6.53;;
24373;SDS011;12498;50.880;12.096;2023-05-10T11:54:33;7.63;;;5.80;;
24373;SDS011;12498;50.880;12.096;2023-05-10T11:57:02;8.13;;;6.18;;
24373;SDS011;12498;50.880;12.096;2023-05-10T11:59:28;8.88;;;6.28;;
24373;SDS011;12498;50.880;12.096;2023-05-10T12:01:56;6.77;;;5.20;;
24373;SDS011;12498;50.880;12.096;2023-05-10T12:04:22;6.57;;;5.60;;
24373;SDS011;12498;50.880;12.096;2023-05-10T12:06:48;7.72;;;5.10;;
24373;SDS011;12498;50.880;12.096;2023-05-10T12:09:13;11.60;;;5.57;;
24373;SDS011;12498;50.880;12.096;2023-05-10T12:11:40;7.95;;;5.70;;
24373;SDS011;12498;50.880;12.096;2023-05-10T12:14:06;7.65;;;6.10;;
24373;SDS011;12498;50.880;12.096;2023-05-10T12:16:33;9.60;;;6.78;;
24373;SDS011;12498;50.880;12.096;2023-05-10T12:18:59;8.40;;;5.97;;
24373;SDS011;12498;50.880;12.096;2023-05-10T12:21:26;7.35;;;5.85;;
24373;SDS011;12498;50.880;12.096;2023-05-10T12:23:54;7.70;;;5.72;;
24373;SDS011;12498;50.880;12.096;2023-05-10T12:26:24;8.38;;;5.95;;
24373;SDS011;12498;50.880;12.096;2023-05-10T12:28:53;7.03;;;5.47;;
24373;SDS011;12498;50.880;12.096;2023-05-10T12:31:19;7.93;;;5.60;;
24373;SDS011;12498;50.880;12.096;2023-05-10T12:33:45;6.63;;;4.47;;
24373;SDS011;12498;50.880;12.096;2023-05-10T12:36:13;5.47;;;4.30;;
24373;SDS011;12498;50.880;12.096;2023-05-10T12:41:10;7.68;;;4.55;;
24373;SDS011;12498;50.880;12.096;2023-05-10T12:43:37;4.25;;;3.85;;
24373;SDS011;12498;50.880;12.096;2023-05-10T12:46:13;6.47;;;4.05;;
24373;SDS011;12498;50.880;12.096;2023-05-10T12:48:41;6.00;;;4.68;;
24373;SDS011;12498;50.880;12.096;2023-05-10T12:51:08;7.13;;;4.88;;
24373;SDS011;12498;50.880;12.096;2023-05-10T12:53:41;7.07;;;4.57;;
24373;SDS011;12498;50.880;12.096;2023-05-10T12:56:06;4.50;;;3.88;;
24373;SDS011;12498;50.880;12.096;2023-05-10T12:58:32;4.05;;;3.65;;
24373;SDS011;12498;50.880;12.096;2023-05-10T13:00:59;5.18;;;3.72;;
24373;SDS011;12498;50.880;12.096;2023-05-10T13:03:25;7.32;;;4.97;;
24373;SDS011;12498;50.880;12.096;2023-05-10T13:05:50;5.50;;;4.45;;
24373;SDS011;12498;50.880;12.096;2023-05-10T13:08:16;6.35;;;5.28;;
24373;SDS011;12498;50.880;12.096;2023-05-10T13:10:42;6.47;;;5.20;;
24373;SDS011;12498;50.880;12.096;2023-05-10T13:13:07;6.07;;;5.05;;
24373;SDS011;12498;50.880;12.096;2023-05-10T13:15:33;5.70;;;4.97;;
24373;SDS011;12498;50.880;12.096;2023-05-10T13:17:59;5.95;;;4.82;;
24373;SDS011;12498;50.880;12.096;2023-05-10T13:20:25;4.93;;;4.40;;
24373;SDS011;12498;50.880;12.096;2023-05-10T13:22:53;6.53;;;5.10;;
24373;SDS011;12498;50.880;12.096;2023-05-10T13:25:19;6.40;;;5.80;;
24373;SDS011;12498;50.880;12.096;2023-05-10T13:27:45;7.93;;;6.35;;
24373;SDS011;12498;50.880;12.096;2023-05-10T13:30:10;6.65;;;5.95;;
24373;SDS011;12498;50.880;12.096;2023-05-10T13:32:36;9.13;;;6.30;;
24373;SDS011;12498;50.880;12.096;2023-05-10T13:35:03;8.05;;;6.75;;
24373;SDS011;12498;50.880;12.096;2023-05-10T13:37:29;8.23;;;6.38;;
24373;SDS011;12498;50.880;12.096;2023-05-10T13:39:55;9.35;;;6.30;;
24373;SDS011;12498;50.880;12.096;2023-05-10T13:42:24;7.25;;;5.95;;
24373;SDS011;12498;50.880;12.096;2023-05-10T13:44:50;9.10;;;6.70;;
24373;SDS011;12498;50.880;12.096;2023-05-10T13:47:16;7.90;;;6.45;;
24373;SDS011;12498;50.880;12.096;2023-05-10T13:49:42;10.90;;;7.78;;
24373;SDS011;12498;50.880;12.096;2023-05-10T13:52:07;10.95;;;7.80;;
24373;SDS011;12498;50.880;12.096;2023-05-10T13:54:34;11.82;;;8.43;;
24373;SDS011;12498;50.880;12.096;2023-05-10T13:57:03;11.20;;;7.97;;
24373;SDS011;12498;50.880;12.096;2023-05-10T13:59:30;9.25;;;7.18;;
24373;SDS011;12498;50.880;12.096;2023-05-10T14:01:59;12.85;;;8.00;;
24373;SDS011;12498;50.880;12.096;2023-05-10T14:04:27;13.63;;;8.85;;
24373;SDS011;12498;50.880;12.096;2023-05-10T14:06:53;10.52;;;8.50;;
24373;SDS011;12498;50.880;12.096;2023-05-10T14:09:19;11.25;;;8.20;;
24373;SDS011;12498;50.880;12.096;2023-05-10T14:11:45;10.00;;;7.68;;
24373;SDS011;12498;50.880;12.096;2023-05-10T14:14:11;11.75;;;8.40;;
24373;SDS011;12498;50.880;12.096;2023-05-10T14:16:37;10.55;;;8.48;;
24373;SDS011;12498;50.880;12.096;2023-05-10T14:19:03;12.38;;;9.38;;
24373;SDS011;12498;50.880;12.096;2023-05-10T14:21:29;11.55;;;9.73;;
24373;SDS011;12498;50.880;12.096;2023-05-10T14:23:55;11.15;;;9.30;;
24373;SDS011;12498;50.880;12.096;2023-05-10T14:26:21;13.45;;;9.15;;
24373;SDS011;12498;50.880;12.096;2023-05-10T14:28:47;12.82;;;9.27;;
24373;SDS011;12498;50.880;12.096;2023-05-10T14:31:13;9.52;;;7.93;;
24373;SDS011;12498;50.880;12.096;2023-05-10T14:33:39;8.27;;;7.35;;
24373;SDS011;12498;50.880;12.096;2023-05-10T14:36:06;11.55;;;8.02;;
24373;SDS011;12498;50.880;12.096;2023-05-10T14:38:32;8.98;;;7.55;;
24373;SDS011;12498;50.880;12.096;2023-05-10T14:40:57;12.25;;;8.15;;
24373;SDS011;12498;50.880;12.096;2023-05-10T14:43:23;9.77;;;7.63;;
24373;SDS011;12498;50.880;12.096;2023-05-10T14:45:50;19.90;;;14.63;;
24373;SDS011;12498;50.880;12.096;2023-05-10T14:48:15;16.55;;;11.32;;
24373;SDS011;12498;50.880;12.096;2023-05-10T14:50:42;15.43;;;10.48;;
24373;SDS011;12498;50.880;12.096;2023-05-10T14:53:08;12.38;;;10.38;;
24373;SDS011;12498;50.880;12.096;2023-05-10T14:55:34;8.93;;;7.35;;
24373;SDS011;12498;50.880;12.096;2023-05-10T14:58:01;8.10;;;6.30;;
24373;SDS011;12498;50.880;12.096;2023-05-10T15:00:29;10.48;;;6.38;;
24373;SDS011;12498;50.880;12.096;2023-05-10T15:02:56;7.07;;;5.85;;
24373;SDS011;12498;50.880;12.096;2023-05-10T15:05:22;7.25;;;6.07;;
24373;SDS011;12498;50.880;12.096;2023-05-10T15:07:48;8.13;;;6.50;;